sensor_id;sensor_type;location;lat;lon;timestamp;pressure;altitude;pressure_sealevel;temperature
9798;BMP180;4938;57.492;12.652;2022-07-06T00:00:17;81893.53;;;-136.68
9798;BMP180;4938;57.492;12.652;2022-07-06T00:03:04;81883.41;;;-136.68
9798;BMP180;4938;57.492;12.652;2022-07-06T00:05:51;81875.31;;;-136.68
9798;BMP180;4938;57.492;12.652;2022-07-06T00:08:40;81877.34;;;-136.68
9798;BMP180;4938;57.492;12.652;2022-07-06T00:11:27;81891.50;;;-136.68
9798;BMP180;4938;57.492;12.652;2022-07-06T00:14:14;81802.47;;;-136.68
9798;BMP180;4938;57.492;12.652;2022-07-06T00:17:01;81875.31;;;-136.68
9798;BMP180;4938;57.492;12.652;2022-07-06T00:19:48;81822.69;;;-136.68
9798;BMP180;4938;57.492;12.652;2022-07-06T00:22:35;81875.31;;;-136.68
9798;BMP180;4938;57.492;12.652;2022-07-06T00:25:23;81844.97;;;-136.68
9798;BMP180;4938;57.492;12.652;2022-07-06T00:28:10;81885.44;;;-136.68
9798;BMP180;4938;57.492;12.652;2022-07-06T00:30:58;81879.34;;;-136.68
9798;BMP180;4938;57.492;12.652;2022-07-06T00:33:44;81851.03;;;-136.68
9798;BMP180;4938;57.492;12.652;2022-07-06T00:36:31;81865.19;;;-136.68
9798;BMP180;4938;57.492;12.652;2022-07-06T00:39:18;81861.16;;;-136.68
9798;BMP180;4938;57.492;12.652;2022-07-06T00:42:08;81873.28;;;-136.68
9798;BMP180;4938;57.492;12.652;2022-07-06T00:44:55;81897.56;;;-136.68
9798;BMP180;4938;57.492;12.652;2022-07-06T00:47:43;81875.31;;;-136.68
9798;BMP180;4938;57.492;12.652;2022-07-06T00:50:31;81869.25;;;-136.68
9798;BMP180;4938;57.492;12.652;2022-07-06T00:53:18;81885.44;;;-136.68
9798;BMP180;4938;57.492;12.652;2022-07-06T00:56:05;81879.34;;;-136.68
9798;BMP180;4938;57.492;12.652;2022-07-06T00:58:53;81885.44;;;-136.68
9798;BMP180;4938;57.492;12.652;2022-07-06T01:01:40;81905.66;;;-136.68
9798;BMP180;4938;57.492;12.652;2022-07-06T01:04:27;81877.34;;;-136.68
9798;BMP180;4938;57.492;12.652;2022-07-06T01:07:15;81869.25;;;-136.68
9798;BMP180;4938;57.492;12.652;2022-07-06T01:10:02;81879.34;;;-136.68
9798;BMP180;4938;57.492;12.652;2022-07-06T01:12:49;81893.53;;;-136.68
9798;BMP180;4938;57.492;12.652;2022-07-06T01:15:38;81895.53;;;-136.68
9798;BMP180;4938;57.492;12.652;2022-07-06T01:18:25;81731.63;;;-136.68
9798;BMP180;4938;57.492;12.652;2022-07-06T01:21:14;81798.41;;;-136.68
9798;BMP180;4938;57.492;12.652;2022-07-06T01:24:01;81897.56;;;-136.68
9798;BMP180;4938;57.492;12.652;2022-07-06T01:26:48;81857.09;;;-136.68
9798;BMP180;4938;57.492;12.652;2022-07-06T01:29:35;81881.38;;;-136.68
9798;BMP180;4938;57.492;12.652;2022-07-06T01:32:22;81614.28;;;-136.68
9798;BMP180;4938;57.492;12.652;2022-07-06T01:35:11;81859.13;;;-136.68
9798;BMP180;4938;57.492;12.652;2022-07-06T01:38:00;81877.34;;;-136.68
9798;BMP180;4938;57.492;12.652;2022-07-06T01:40:47;81881.38;;;-136.68
9798;BMP180;4938;57.492;12.652;2022-07-06T01:43:34;81917.81;;;-136.68
9798;BMP180;4938;57.492;12.652;2022-07-06T01:46:21;81877.34;;;-136.68
9798;BMP180;4938;57.492;12.652;2022-07-06T01:49:08;81893.53;;;-136.68
9798;BMP180;4938;57.492;12.652;2022-07-06T01:51:54;81844.97;;;-136.68
9798;BMP180;4938;57.492;12.652;2022-07-06T01:54:43;81883.41;;;-136.68
9798;BMP180;4938;57.492;12.652;2022-07-06T01:57:30;81881.38;;;-136.68
9798;BMP180;4938;57.492;12.652;2022-07-06T02:00:17;81897.56;;;-136.68
9798;BMP180;4938;57.492;12.652;2022-07-06T02:03:04;81897.56;;;-136.68
9798;BMP180;4938;57.492;12.652;2022-07-06T02:05:51;81885.44;;;-136.68
9798;BMP180;4938;57.492;12.652;2022-07-06T02:08:39;81859.13;;;-136.68
9798;BMP180;4938;57.492;12.652;2022-07-06T02:11:27;81859.13;;;-136.68
9798;BMP180;4938;57.492;12.652;2022-07-06T02:14:14;81889.47;;;-136.68
9798;BMP180;4938;57.492;12.652;2022-07-06T02:17:01;81897.56;;;-136.68
9798;BMP180;4938;57.492;12.652;2022-07-06T02:19:48;81889.47;;;-136.68
9798;BMP180;4938;57.492;12.652;2022-07-06T02:22:35;81895.53;;;-136.68
9798;BMP180;4938;57.492;12.652;2022-07-06T02:25:22;81846.97;;;-136.68
9798;BMP180;4938;57.492;12.652;2022-07-06T02:28:11;81861.16;;;-136.68
9798;BMP180;4938;57.492;12.652;2022-07-06T02:30:58;81871.25;;;-136.68
9798;BMP180;4938;57.492;12.652;2022-07-06T02:33:45;81887.44;;;-136.68
9798;BMP180;4938;57.492;12.652;2022-07-06T02:36:32;81901.63;;;-136.68
9798;BMP180;4938;57.492;12.652;2022-07-06T02:39:19;81883.41;;;-136.68
9798;BMP180;4938;57.492;12.652;2022-07-06T02:42:06;81905.66;;;-136.68
9798;BMP180;4938;57.492;12.652;2022-07-06T02:44:54;81905.66;;;-136.68
9798;BMP180;4938;57.492;12.652;2022-07-06T02:47:41;81869.25;;;-136.68
9798;BMP180;4938;57.492;12.652;2022-07-06T02:50:28;81863.16;;;-136.68
9798;BMP180;4938;57.492;12.652;2022-07-06T02:53:17;81679.03;;;-136.68
9798;BMP180;4938;57.492;12.652;2022-07-06T02:56:06;81533.34;;;-136.68
9798;BMP180;4938;57.492;12.652;2022-07-06T02:58:54;81844.97;;;-136.68
9798;BMP180;4938;57.492;12.652;2022-07-06T03:01:43;81867.22;;;-136.68
9798;BMP180;4938;57.492;12.652;2022-07-06T03:04:30;81820.69;;;-136.68
9798;BMP180;4938;57.492;12.652;2022-07-06T03:07:17;81836.88;;;-136.68
9798;BMP180;4938;57.492;12.652;2022-07-06T03:10:04;81608.19;;;-136.68
9798;BMP180;4938;57.492;12.652;2022-07-06T03:12:51;81804.47;;;-136.68
9798;BMP180;4938;57.492;12.652;2022-07-06T03:15:39;81759.97;;;-136.68
9798;BMP180;4938;57.492;12.652;2022-07-06T03:18:27;81820.69;;;-136.68
9798;BMP180;4938;57.492;12.652;2022-07-06T03:21:14;81830.78;;;-136.68
9798;BMP180;4938;57.492;12.652;2022-07-06T03:24:01;81818.66;;;-136.68
9798;BMP180;4938;57.492;12.652;2022-07-06T03:26:48;81782.22;;;-136.68
9798;BMP180;4938;57.492;12.652;2022-07-06T03:29:38;81739.72;;;-136.68
9798;BMP180;4938;57.492;12.652;2022-07-06T03:32:25;81804.47;;;-136.68
9798;BMP180;4938;57.492;12.652;2022-07-06T03:35:13;81776.16;;;-136.68
9798;BMP180;4938;57.492;12.652;2022-07-06T03:38:00;81784.25;;;-136.68
9798;BMP180;4938;57.492;12.652;2022-07-06T03:40:49;81762.00;;;-136.68
9798;BMP180;4938;57.492;12.652;2022-07-06T03:43:36;81733.66;;;-136.68
9798;BMP180;4938;57.492;12.652;2022-07-06T03:46:23;81729.63;;;-136.68
9798;BMP180;4938;57.492;12.652;2022-07-06T03:49:10;81632.47;;;-136.68
9798;BMP180;4938;57.492;12.652;2022-07-06T03:51:59;81505.00;;;-136.68
9798;BMP180;4938;57.492;12.652;2022-07-06T03:54:46;81448.34;;;-136.68
9798;BMP180;4938;57.492;12.652;2022-07-06T03:57:33;81359.31;;;-136.68
9798;BMP180;4938;57.492;12.652;2022-07-06T04:00:23;81411.94;;;-136.68
9798;BMP180;4938;57.492;12.652;2022-07-06T04:03:10;81399.78;;;-136.68
9798;BMP180;4938;57.492;12.652;2022-07-06T04:05:57;81375.50;;;-136.68
9798;BMP180;4938;57.492;12.652;2022-07-06T04:08:48;81209.59;;;-136.68
9798;BMP180;4938;57.492;12.652;2022-07-06T04:11:36;81306.72;;;-136.68
9798;BMP180;4938;57.492;12.652;2022-07-06T04:14:23;81363.38;;;-136.68
9798;BMP180;4938;57.492;12.652;2022-07-06T04:17:11;81359.31;;;-136.68
9798;BMP180;4938;57.492;12.652;2022-07-06T04:20:15;81357.31;;;-136.68
9798;BMP180;4938;57.492;12.652;2022-07-06T04:23:03;81331.00;;;-136.68
9798;BMP180;4938;57.492;12.652;2022-07-06T04:25:54;81347.19;;;-136.68
9798;BMP180;4938;57.492;12.652;2022-07-06T04:28:41;81343.13;;;-136.68
9798;BMP180;4938;57.492;12.652;2022-07-06T04:31:28;81316.84;;;-136.68
9798;BMP180;4938;57.492;12.652;2022-07-06T04:34:15;81308.75;;;-136.68
9798;BMP180;4938;57.492;12.652;2022-07-06T04:37:02;81314.81;;;-136.68
9798;BMP180;4938;57.492;12.652;2022-07-06T04:39:55;81294.59;;;-136.68
9798;BMP180;4938;57.492;12.652;2022-07-06T04:42:43;81280.41;;;-136.68
9798;BMP180;4938;57.492;12.652;2022-07-06T04:45:30;81278.41;;;-136.68
9798;BMP180;4938;57.492;12.652;2022-07-06T04:48:17;81278.41;;;-136.68
9798;BMP180;4938;57.492;12.652;2022-07-06T04:51:08;81266.25;;;-136.68
9798;BMP180;4938;57.492;12.652;2022-07-06T04:53:55;81278.41;;;-136.68
9798;BMP180;4938;57.492;12.652;2022-07-06T04:56:42;81258.16;;;-136.68
9798;BMP180;4938;57.492;12.652;2022-07-06T04:59:31;81199.50;;;-136.68
9798;BMP180;4938;57.492;12.652;2022-07-06T05:02:18;81213.66;;;-136.68
9798;BMP180;4938;57.492;12.652;2022-07-06T05:05:06;81237.94;;;-136.68
9798;BMP180;4938;57.492;12.652;2022-07-06T05:07:55;81278.41;;;-136.68
9798;BMP180;4938;57.492;12.652;2022-07-06T05:10:42;81187.34;;;-136.68
9798;BMP180;4938;57.492;12.652;2022-07-06T05:13:29;81213.66;;;-136.68
9798;BMP180;4938;57.492;12.652;2022-07-06T05:16:17;81140.81;;;-136.68
9798;BMP180;4938;57.492;12.652;2022-07-06T05:19:04;81092.25;;;-136.68
9798;BMP180;4938;57.492;12.652;2022-07-06T05:21:51;81021.44;;;-136.68
9798;BMP180;4938;57.492;12.652;2022-07-06T05:24:38;81039.66;;;-136.68
9798;BMP180;4938;57.492;12.652;2022-07-06T05:27:25;81094.28;;;-136.68
9798;BMP180;4938;57.492;12.652;2022-07-06T05:30:12;81051.81;;;-136.68
9798;BMP180;4938;57.492;12.652;2022-07-06T05:33:02;80995.16;;;-136.68
9798;BMP180;4938;57.492;12.652;2022-07-06T05:35:50;80997.19;;;-136.68
9798;BMP180;4938;57.492;12.652;2022-07-06T05:38:36;81025.50;;;-136.68
9798;BMP180;4938;57.492;12.652;2022-07-06T05:41:27;81027.53;;;-136.68
9798;BMP180;4938;57.492;12.652;2022-07-06T05:44:14;81035.63;;;-136.68
9798;BMP180;4938;57.492;12.652;2022-07-06T05:47:01;81031.56;;;-136.68
9798;BMP180;4938;57.492;12.652;2022-07-06T05:50:05;80974.94;;;-136.68
9798;BMP180;4938;57.492;12.652;2022-07-06T05:53:03;80914.22;;;-136.68
9798;BMP180;4938;57.492;12.652;2022-07-06T05:55:51;80323.59;;;-136.68
9798;BMP180;4938;57.492;12.652;2022-07-06T05:58:39;80788.81;;;-136.68
9798;BMP180;4938;57.492;12.652;2022-07-06T06:01:26;80853.53;;;-136.68
9798;BMP180;4938;57.492;12.652;2022-07-06T06:04:13;80898.06;;;-136.68
9798;BMP180;4938;57.492;12.652;2022-07-06T06:07:02;80728.13;;;-136.68
9798;BMP180;4938;57.492;12.652;2022-07-06T06:09:49;80932.44;;;-136.68
9798;BMP180;4938;57.492;12.652;2022-07-06T06:12:38;80902.09;;;-136.68
9798;BMP180;4938;57.492;12.652;2022-07-06T06:15:25;80475.28;;;-136.68
9798;BMP180;4938;57.492;12.652;2022-07-06T06:18:12;80932.44;;;-136.68
9798;BMP180;4938;57.492;12.652;2022-07-06T06:21:02;80926.38;;;-136.68
9798;BMP180;4938;57.492;12.652;2022-07-06T06:23:51;80558.22;;;-136.68
9798;BMP180;4938;57.492;12.652;2022-07-06T06:26:38;80776.69;;;-136.68
9798;BMP180;4938;57.492;12.652;2022-07-06T06:29:25;80782.75;;;-136.68
9798;BMP180;4938;57.492;12.652;2022-07-06T06:32:13;80748.34;;;-136.68
9798;BMP180;4938;57.492;12.652;2022-07-06T06:35:00;80594.63;;;-136.68
9798;BMP180;4938;57.492;12.652;2022-07-06T06:37:47;80558.22;;;-136.68
9798;BMP180;4938;57.492;12.652;2022-07-06T06:40:35;80592.59;;;-136.68
9798;BMP180;4938;57.492;12.652;2022-07-06T06:43:22;80752.41;;;-136.68
9798;BMP180;4938;57.492;12.652;2022-07-06T06:46:09;80687.66;;;-136.68
9798;BMP180;4938;57.492;12.652;2022-07-06T06:48:56;80535.97;;;-136.68
9798;BMP180;4938;57.492;12.652;2022-07-06T06:51:43;80477.31;;;-136.68
9798;BMP180;4938;57.492;12.652;2022-07-06T06:54:30;80362.00;;;-136.68
9798;BMP180;4938;57.492;12.652;2022-07-06T06:57:20;80141.56;;;-136.68
9798;BMP180;4938;57.492;12.652;2022-07-06T07:00:08;79818.00;;;-136.68
9798;BMP180;4938;57.492;12.652;2022-07-06T07:02:56;79369.09;;;-136.68
9798;BMP180;4938;57.492;12.652;2022-07-06T07:05:43;79201.28;;;-136.68
9798;BMP180;4938;57.492;12.652;2022-07-06T07:08:30;78920.28;;;-136.68
9798;BMP180;4938;57.492;12.652;2022-07-06T07:11:18;78693.88;;;-136.68
9798;BMP180;4938;57.492;12.652;2022-07-06T07:14:08;78629.19;;;-136.68
9798;BMP180;4938;57.492;12.652;2022-07-06T07:16:55;78516.00;;;-136.68
9798;BMP180;4938;57.492;12.652;2022-07-06T07:19:42;78503.84;;;-136.68
9798;BMP180;4938;57.492;12.652;2022-07-06T07:22:29;78501.84;;;-136.68
9798;BMP180;4938;57.492;12.652;2022-07-06T07:25:16;79077.97;;;-136.68
9798;BMP180;4938;57.492;12.652;2022-07-06T07:28:04;79356.97;;;-136.68
9798;BMP180;4938;57.492;12.652;2022-07-06T07:30:52;79773.50;;;-136.68
9798;BMP180;4938;57.492;12.652;2022-07-06T07:33:40;79963.59;;;-136.68
9798;BMP180;4938;57.492;12.652;2022-07-06T07:36:27;80117.28;;;-136.68
9798;BMP180;4938;57.492;12.652;2022-07-06T07:39:14;79981.78;;;-136.68
9798;BMP180;4938;57.492;12.652;2022-07-06T07:42:01;79848.31;;;-136.68
9798;BMP180;4938;57.492;12.652;2022-07-06T07:44:48;79826.06;;;-136.68
9798;BMP180;4938;57.492;12.652;2022-07-06T07:47:37;79247.78;;;-136.68
9798;BMP180;4938;57.492;12.652;2022-07-06T07:50:25;79514.69;;;-136.68
9798;BMP180;4938;57.492;12.652;2022-07-06T07:53:12;79344.84;;;-136.68
9798;BMP180;4938;57.492;12.652;2022-07-06T07:55:59;78976.88;;;-136.68
9798;BMP180;4938;57.492;12.652;2022-07-06T07:58:46;79340.78;;;-136.68
9798;BMP180;4938;57.492;12.652;2022-07-06T08:01:34;79716.88;;;-136.68
9798;BMP180;4938;57.492;12.652;2022-07-06T08:04:23;79718.91;;;-136.68
9798;BMP180;4938;57.492;12.652;2022-07-06T08:07:11;79413.56;;;-136.68
9798;BMP180;4938;57.492;12.652;2022-07-06T08:09:58;79367.06;;;-136.68
9798;BMP180;4938;57.492;12.652;2022-07-06T08:12:45;79785.63;;;-136.68
9798;BMP180;4938;57.492;12.652;2022-07-06T08:15:34;79571.28;;;-136.68
9798;BMP180;4938;57.492;12.652;2022-07-06T08:18:21;79751.25;;;-136.68
9798;BMP180;4938;57.492;12.652;2022-07-06T08:21:10;79601.63;;;-136.68
9798;BMP180;4938;57.492;12.652;2022-07-06T08:23:57;79300.34;;;-136.68
9798;BMP180;4938;57.492;12.652;2022-07-06T08:26:46;79130.53;;;-136.68
9798;BMP180;4938;57.492;12.652;2022-07-06T08:29:33;79326.63;;;-136.68
9798;BMP180;4938;57.492;12.652;2022-07-06T08:32:20;79452.00;;;-136.68
9798;BMP180;4938;57.492;12.652;2022-07-06T08:35:07;79393.34;;;-136.68
9798;BMP180;4938;57.492;12.652;2022-07-06T08:37:56;79371.13;;;-136.68
9798;BMP180;4938;57.492;12.652;2022-07-06T08:40:46;79407.50;;;-136.68
9798;BMP180;4938;57.492;12.652;2022-07-06T08:43:33;79482.31;;;-136.68
9798;BMP180;4938;57.492;12.652;2022-07-06T08:46:21;79559.16;;;-136.68
9798;BMP180;4938;57.492;12.652;2022-07-06T08:49:12;79605.66;;;-136.68
9798;BMP180;4938;57.492;12.652;2022-07-06T08:52:00;79668.34;;;-136.68
9798;BMP180;4938;57.492;12.652;2022-07-06T08:54:50;79593.53;;;-136.68
9798;BMP180;4938;57.492;12.652;2022-07-06T08:57:38;79850.34;;;-136.68
9798;BMP180;4938;57.492;12.652;2022-07-06T09:00:25;79945.38;;;-136.68
9798;BMP180;4938;57.492;12.652;2022-07-06T09:03:13;80060.66;;;-136.68
9798;BMP180;4938;57.492;12.652;2022-07-06T09:06:02;80052.56;;;-136.68
9798;BMP180;4938;57.492;12.652;2022-07-06T09:08:52;80107.19;;;-136.68
9798;BMP180;4938;57.492;12.652;2022-07-06T09:11:41;80155.72;;;-136.68
9798;BMP180;4938;57.492;12.652;2022-07-06T09:14:29;80204.25;;;-136.68
9798;BMP180;4938;57.492;12.652;2022-07-06T09:17:18;80242.69;;;-136.68
9798;BMP180;4938;57.492;12.652;2022-07-06T09:20:07;80254.81;;;-136.68
9798;BMP180;4938;57.492;12.652;2022-07-06T09:22:57;80368.09;;;-136.68
9798;BMP180;4938;57.492;12.652;2022-07-06T09:25:48;80291.22;;;-136.68
9798;BMP180;4938;57.492;12.652;2022-07-06T09:28:44;80222.47;;;-136.68
9798;BMP180;4938;57.492;12.652;2022-07-06T09:31:31;80353.94;;;-136.68
9798;BMP180;4938;57.492;12.652;2022-07-06T09:34:18;80303.34;;;-136.68
9798;BMP180;4938;57.492;12.652;2022-07-06T09:37:07;80347.84;;;-136.68
9798;BMP180;4938;57.492;12.652;2022-07-06T09:39:54;80351.91;;;-136.68
9798;BMP180;4938;57.492;12.652;2022-07-06T09:42:41;80398.41;;;-136.68
9798;BMP180;4938;57.492;12.652;2022-07-06T09:45:29;80457.06;;;-136.68
9798;BMP180;4938;57.492;12.652;2022-07-06T09:48:17;80398.41;;;-136.68
9798;BMP180;4938;57.492;12.652;2022-07-06T09:51:08;80283.13;;;-136.68
9798;BMP180;4938;57.492;12.652;2022-07-06T09:53:58;80436.84;;;-136.68
9798;BMP180;4938;57.492;12.652;2022-07-06T09:56:48;80505.63;;;-136.68
9798;BMP180;4938;57.492;12.652;2022-07-06T09:59:36;80513.72;;;-136.68
9798;BMP180;4938;57.492;12.652;2022-07-06T10:02:26;80517.75;;;-136.68
9798;BMP180;4938;57.492;12.652;2022-07-06T10:05:15;80489.44;;;-136.68
9798;BMP180;4938;57.492;12.652;2022-07-06T10:08:03;80384.25;;;-136.68
9798;BMP180;4938;57.492;12.652;2022-07-06T10:10:52;80469.22;;;-136.68
9798;BMP180;4938;57.492;12.652;2022-07-06T10:13:39;80531.91;;;-136.68
9798;BMP180;4938;57.492;12.652;2022-07-06T10:16:26;80521.81;;;-136.68
9798;BMP180;4938;57.492;12.652;2022-07-06T10:19:17;80533.94;;;-136.68
9798;BMP180;4938;57.492;12.652;2022-07-06T10:22:04;79987.84;;;-136.68
9798;BMP180;4938;57.492;12.652;2022-07-06T10:24:51;80503.59;;;-136.68
9798;BMP180;4938;57.492;12.652;2022-07-06T10:27:39;80260.88;;;-136.68
9798;BMP180;4938;57.492;12.652;2022-07-06T10:30:27;80509.66;;;-136.68
9798;BMP180;4938;57.492;12.652;2022-07-06T10:33:15;80529.91;;;-136.68
9798;BMP180;4938;57.492;12.652;2022-07-06T10:36:05;80533.94;;;-136.68
9798;BMP180;4938;57.492;12.652;2022-07-06T10:38:53;80537.97;;;-136.68
9798;BMP180;4938;57.492;12.652;2022-07-06T10:41:40;80578.44;;;-136.68
9798;BMP180;4938;57.492;12.652;2022-07-06T10:44:27;80550.13;;;-136.68
9798;BMP180;4938;57.492;12.652;2022-07-06T10:47:14;80428.75;;;-136.68
9798;BMP180;4938;57.492;12.652;2022-07-06T10:50:01;80430.78;;;-136.68
9798;BMP180;4938;57.492;12.652;2022-07-06T10:52:51;80529.91;;;-136.68
9798;BMP180;4938;57.492;12.652;2022-07-06T10:55:40;80552.16;;;-136.68
9798;BMP180;4938;57.492;12.652;2022-07-06T10:58:41;80525.84;;;-136.68
9798;BMP180;4938;57.492;12.652;2022-07-06T11:01:35;80505.63;;;-136.68
9798;BMP180;4938;57.492;12.652;2022-07-06T11:04:30;80525.84;;;-136.68
9798;BMP180;4938;57.492;12.652;2022-07-06T11:07:19;80521.81;;;-136.68
9798;BMP180;4938;57.492;12.652;2022-07-06T11:10:08;80465.16;;;-136.68
9798;BMP180;4938;57.492;12.652;2022-07-06T11:12:58;80467.19;;;-136.68
9798;BMP180;4938;57.492;12.652;2022-07-06T11:15:49;80509.66;;;-136.68
9798;BMP180;4938;57.492;12.652;2022-07-06T11:18:39;80501.56;;;-136.68
9798;BMP180;4938;57.492;12.652;2022-07-06T11:21:51;80527.88;;;-136.68
9798;BMP180;4938;57.492;12.652;2022-07-06T11:24:40;80489.44;;;-136.68
9798;BMP180;4938;57.492;12.652;2022-07-06T11:27:29;80418.66;;;-136.68
9798;BMP180;4938;57.492;12.652;2022-07-06T11:30:16;80505.63;;;-136.68
9798;BMP180;4938;57.492;12.652;2022-07-06T11:33:03;80465.16;;;-136.68
9798;BMP180;4938;57.492;12.652;2022-07-06T11:35:50;80517.75;;;-136.68
9798;BMP180;4938;57.492;12.652;2022-07-06T11:38:37;80537.97;;;-136.68
9798;BMP180;4938;57.492;12.652;2022-07-06T11:41:24;80457.06;;;-136.68
9798;BMP180;4938;57.492;12.652;2022-07-06T11:44:13;80525.84;;;-136.68
9798;BMP180;4938;57.492;12.652;2022-07-06T11:47:00;80511.69;;;-136.68
9798;BMP180;4938;57.492;12.652;2022-07-06T11:49:50;80483.38;;;-136.68
9798;BMP180;4938;57.492;12.652;2022-07-06T11:52:37;80489.44;;;-136.68
9798;BMP180;4938;57.492;12.652;2022-07-06T11:55:28;80501.56;;;-136.68
9798;BMP180;4938;57.492;12.652;2022-07-06T11:58:16;80519.78;;;-136.68
9798;BMP180;4938;57.492;12.652;2022-07-06T12:01:07;80568.31;;;-136.68
9798;BMP180;4938;57.492;12.652;2022-07-06T12:03:58;80378.19;;;-136.68
9798;BMP180;4938;57.492;12.652;2022-07-06T12:06:45;80509.66;;;-136.68
9798;BMP180;4938;57.492;12.652;2022-07-06T12:09:33;80590.56;;;-136.68
9798;BMP180;4938;57.492;12.652;2022-07-06T12:12:20;80594.63;;;-136.68
9798;BMP180;4938;57.492;12.652;2022-07-06T12:15:08;80596.66;;;-136.68
9798;BMP180;4938;57.492;12.652;2022-07-06T12:17:56;80533.94;;;-136.68
9798;BMP180;4938;57.492;12.652;2022-07-06T12:20:43;80600.69;;;-136.68
9798;BMP180;4938;57.492;12.652;2022-07-06T12:23:41;80499.56;;;-136.68
9798;BMP180;4938;57.492;12.652;2022-07-06T12:26:38;80606.75;;;-136.68
9798;BMP180;4938;57.492;12.652;2022-07-06T12:29:26;80566.31;;;-136.68
9798;BMP180;4938;57.492;12.652;2022-07-06T12:32:15;80639.13;;;-136.68
9798;BMP180;4938;57.492;12.652;2022-07-06T12:35:03;80691.72;;;-136.68
9798;BMP180;4938;57.492;12.652;2022-07-06T12:38:00;80428.75;;;-136.68
9798;BMP180;4938;57.492;12.652;2022-07-06T12:40:47;80562.25;;;-136.68
9798;BMP180;4938;57.492;12.652;2022-07-06T12:43:35;80535.97;;;-136.68
9798;BMP180;4938;57.492;12.652;2022-07-06T12:46:28;80556.19;;;-136.68
9798;BMP180;4938;57.492;12.652;2022-07-06T12:49:18;80586.53;;;-136.68
9798;BMP180;4938;57.492;12.652;2022-07-06T12:52:12;80550.13;;;-136.68
9798;BMP180;4938;57.492;12.652;2022-07-06T12:55:00;80604.75;;;-136.68
9798;BMP180;4938;57.492;12.652;2022-07-06T12:57:48;80580.47;;;-136.68
9798;BMP180;4938;57.492;12.652;2022-07-06T13:00:44;80560.22;;;-136.68
9798;BMP180;4938;57.492;12.652;2022-07-06T13:03:38;80525.84;;;-136.68
9798;BMP180;4938;57.492;12.652;2022-07-06T13:06:29;80521.81;;;-136.68
9798;BMP180;4938;57.492;12.652;2022-07-06T13:09:19;80463.16;;;-136.68
9798;BMP180;4938;57.492;12.652;2022-07-06T13:12:08;80566.31;;;-136.68
9798;BMP180;4938;57.492;12.652;2022-07-06T13:14:56;80455.06;;;-136.68
9798;BMP180;4938;57.492;12.652;2022-07-06T13:17:44;80531.91;;;-136.68
9798;BMP180;4938;57.492;12.652;2022-07-06T13:20:31;80562.25;;;-136.68
9798;BMP180;4938;57.492;12.652;2022-07-06T13:23:18;80590.56;;;-136.68
9798;BMP180;4938;57.492;12.652;2022-07-06T13:26:07;80622.94;;;-136.68
9798;BMP180;4938;57.492;12.652;2022-07-06T13:28:54;80768.59;;;-136.68
9798;BMP180;4938;57.492;12.652;2022-07-06T13:31:41;80659.34;;;-136.68
9798;BMP180;4938;57.492;12.652;2022-07-06T13:34:28;80618.91;;;-136.68
9798;BMP180;4938;57.492;12.652;2022-07-06T13:37:15;80661.38;;;-136.68
9798;BMP180;4938;57.492;12.652;2022-07-06T13:40:02;80709.91;;;-136.68
9798;BMP180;4938;57.492;12.652;2022-07-06T13:42:51;80703.84;;;-136.68
9798;BMP180;4938;57.492;12.652;2022-07-06T13:45:42;80695.75;;;-136.68
9798;BMP180;4938;57.492;12.652;2022-07-06T13:48:30;80709.91;;;-136.68
9798;BMP180;4938;57.492;12.652;2022-07-06T13:51:17;80728.13;;;-136.68
9798;BMP180;4938;57.492;12.652;2022-07-06T13:54:04;80703.84;;;-136.68
9798;BMP180;4938;57.492;12.652;2022-07-06T13:56:53;80667.44;;;-136.68
9798;BMP180;4938;57.492;12.652;2022-07-06T13:59:42;80711.94;;;-136.68
9798;BMP180;4938;57.492;12.652;2022-07-06T14:02:29;80697.78;;;-136.68
9798;BMP180;4938;57.492;12.652;2022-07-06T14:05:16;80683.63;;;-136.68
9798;BMP180;4938;57.492;12.652;2022-07-06T14:08:04;80716.00;;;-136.68
9798;BMP180;4938;57.492;12.652;2022-07-06T14:10:51;80707.91;;;-136.68
9798;BMP180;4938;57.492;12.652;2022-07-06T14:13:38;80689.69;;;-136.68
9798;BMP180;4938;57.492;12.652;2022-07-06T14:16:27;80675.53;;;-136.68
9798;BMP180;4938;57.492;12.652;2022-07-06T14:19:14;80669.47;;;-136.68
9798;BMP180;4938;57.492;12.652;2022-07-06T14:22:01;80665.41;;;-136.68
9798;BMP180;4938;57.492;12.652;2022-07-06T14:24:48;80736.22;;;-136.68
9798;BMP180;4938;57.492;12.652;2022-07-06T14:27:36;80661.38;;;-136.68
9798;BMP180;4938;57.492;12.652;2022-07-06T14:30:23;80675.53;;;-136.68
9798;BMP180;4938;57.492;12.652;2022-07-06T14:33:15;80732.16;;;-136.68
9798;BMP180;4938;57.492;12.652;2022-07-06T14:36:02;80705.88;;;-136.68
9798;BMP180;4938;57.492;12.652;2022-07-06T14:38:50;80738.25;;;-136.68
9798;BMP180;4938;57.492;12.652;2022-07-06T14:41:38;80772.63;;;-136.68
9798;BMP180;4938;57.492;12.652;2022-07-06T14:44:25;80776.69;;;-136.68
9798;BMP180;4938;57.492;12.652;2022-07-06T14:47:12;80792.84;;;-136.68
9798;BMP180;4938;57.492;12.652;2022-07-06T14:50:00;80845.47;;;-136.68
9798;BMP180;4938;57.492;12.652;2022-07-06T14:52:48;80805.00;;;-136.68
9798;BMP180;4938;57.492;12.652;2022-07-06T14:55:35;80835.34;;;-136.68
9798;BMP180;4938;57.492;12.652;2022-07-06T14:58:22;80811.06;;;-136.68
9798;BMP180;4938;57.492;12.652;2022-07-06T15:01:09;80639.13;;;-136.68
9798;BMP180;4938;57.492;12.652;2022-07-06T15:03:56;80851.53;;;-136.68
9798;BMP180;4938;57.492;12.652;2022-07-06T15:06:44;80857.59;;;-136.68
9798;BMP180;4938;57.492;12.652;2022-07-06T15:09:32;80885.91;;;-136.68
9798;BMP180;4938;57.492;12.652;2022-07-06T15:12:20;80867.72;;;-136.68
9798;BMP180;4938;57.492;12.652;2022-07-06T15:15:07;80861.63;;;-136.68
9798;BMP180;4938;57.492;12.652;2022-07-06T15:17:55;80877.81;;;-136.68
9798;BMP180;4938;57.492;12.652;2022-07-06T15:20:42;80817.13;;;-136.68
9798;BMP180;4938;57.492;12.652;2022-07-06T15:23:31;80885.91;;;-136.68
9798;BMP180;4938;57.492;12.652;2022-07-06T15:26:18;80898.06;;;-136.68
9798;BMP180;4938;57.492;12.652;2022-07-06T15:29:05;80920.31;;;-136.68
9798;BMP180;4938;57.492;12.652;2022-07-06T15:31:52;80879.84;;;-136.68
9798;BMP180;4938;57.492;12.652;2022-07-06T15:34:39;80683.63;;;-136.68
9798;BMP180;4938;57.492;12.652;2022-07-06T15:37:26;80926.38;;;-136.68
9798;BMP180;4938;57.492;12.652;2022-07-06T15:40:14;81403.84;;;-136.68
9798;BMP180;4938;57.492;12.652;2022-07-06T15:43:07;80948.63;;;-136.68
9798;BMP180;4938;57.492;12.652;2022-07-06T15:45:55;80934.47;;;-136.68
9798;BMP180;4938;57.492;12.652;2022-07-06T15:48:43;80958.75;;;-136.68
9798;BMP180;4938;57.492;12.652;2022-07-06T15:51:30;80978.97;;;-136.68
9798;BMP180;4938;57.492;12.652;2022-07-06T15:54:17;80948.63;;;-136.68